sensor_id;sensor_type;location;lat;lon;timestamp;P1;durP1;ratioP1;P2;durP2;ratioP2
47219;SDS011;32961;51.936;4.788;2023-12-28T00:00:32;5.97;;;2.42;;
47219;SDS011;32961;51.936;4.788;2023-12-28T00:03:00;6.43;;;2.60;;
47219;SDS011;32961;51.936;4.788;2023-12-28T00:05:28;4.97;;;2.75;;
47219;SDS011;32961;51.936;4.788;2023-12-28T00:07:56;7.65;;;2.53;;
47219;SDS011;32961;51.936;4.788;2023-12-28T00:10:25;8.13;;;2.65;;
47219;SDS011;32961;51.936;4.788;2023-12-28T00:12:54;5.25;;;2.40;;
47219;SDS011;32961;51.936;4.788;2023-12-28T00:15:22;5.82;;;2.35;;
47219;SDS011;32961;51.936;4.788;2023-12-28T00:17:52;6.45;;;2.65;;
47219;SDS011;32961;51.936;4.788;2023-12-28T00:20:20;4.85;;;2.35;;
47219;SDS011;32961;51.936;4.788;2023-12-28T00:22:47;7.20;;;2.65;;
47219;SDS011;32961;51.936;4.788;2023-12-28T00:25:15;7.65;;;2.50;;
47219;SDS011;32961;51.936;4.788;2023-12-28T00:27:43;7.88;;;2.42;;
47219;SDS011;32961;51.936;4.788;2023-12-28T00:30:12;6.35;;;2.85;;
47219;SDS011;32961;51.936;4.788;2023-12-28T00:32:40;5.82;;;2.35;;
47219;SDS011;32961;51.936;4.788;2023-12-28T00:35:11;7.95;;;2.63;;
47219;SDS011;32961;51.936;4.788;2023-12-28T00:37:39;6.38;;;2.92;;
47219;SDS011;32961;51.936;4.788;2023-12-28T00:40:08;6.63;;;2.17;;
47219;SDS011;32961;51.936;4.788;2023-12-28T00:42:36;6.43;;;2.70;;
47219;SDS011;32961;51.936;4.788;2023-12-28T00:45:06;4.60;;;2.20;;
47219;SDS011;32961;51.936;4.788;2023-12-28T00:47:34;4.93;;;2.30;;
47219;SDS011;32961;51.936;4.788;2023-12-28T00:50:02;7.72;;;2.17;;
47219;SDS011;32961;51.936;4.788;2023-12-28T00:52:31;3.97;;;2.10;;
47219;SDS011;32961;51.936;4.788;2023-12-28T00:54:59;5.53;;;2.10;;
47219;SDS011;32961;51.936;4.788;2023-12-28T00:57:27;7.28;;;2.47;;
47219;SDS011;32961;51.936;4.788;2023-12-28T00:59:55;5.45;;;2.30;;
47219;SDS011;32961;51.936;4.788;2023-12-28T01:02:23;8.52;;;2.70;;
47219;SDS011;32961;51.936;4.788;2023-12-28T01:04:51;8.90;;;2.65;;
47219;SDS011;32961;51.936;4.788;2023-12-28T01:07:20;4.95;;;2.35;;
47219;SDS011;32961;51.936;4.788;2023-12-28T01:09:49;8.23;;;2.97;;
47219;SDS011;32961;51.936;4.788;2023-12-28T01:12:17;7.72;;;2.58;;
47219;SDS011;32961;51.936;4.788;2023-12-28T01:14:45;5.43;;;2.22;;
47219;SDS011;32961;51.936;4.788;2023-12-28T01:17:13;6.38;;;2.25;;
47219;SDS011;32961;51.936;4.788;2023-12-28T01:19:41;7.05;;;2.50;;
47219;SDS011;32961;51.936;4.788;2023-12-28T01:22:09;4.95;;;2.70;;
47219;SDS011;32961;51.936;4.788;2023-12-28T01:24:37;5.38;;;2.40;;
47219;SDS011;32961;51.936;4.788;2023-12-28T01:27:06;12.43;;;4.22;;
47219;SDS011;32961;51.936;4.788;2023-12-28T01:29:34;5.13;;;2.60;;
47219;SDS011;32961;51.936;4.788;2023-12-28T01:32:02;5.60;;;2.42;;
47219;SDS011;32961;51.936;4.788;2023-12-28T01:34:31;7.30;;;2.70;;
47219;SDS011;32961;51.936;4.788;2023-12-28T01:36:59;7.38;;;2.67;;
47219;SDS011;32961;51.936;4.788;2023-12-28T01:39:27;9.25;;;2.75;;
47219;SDS011;32961;51.936;4.788;2023-12-28T01:41:55;4.68;;;2.40;;
47219;SDS011;32961;51.936;4.788;2023-12-28T01:44:24;7.57;;;3.33;;
47219;SDS011;32961;51.936;4.788;2023-12-28T01:46:52;5.07;;;2.33;;
47219;SDS011;32961;51.936;4.788;2023-12-28T01:49:20;5.70;;;2.58;;
47219;SDS011;32961;51.936;4.788;2023-12-28T01:51:51;10.48;;;2.45;;
47219;SDS011;32961;51.936;4.788;2023-12-28T01:54:19;6.90;;;2.22;;
47219;SDS011;32961;51.936;4.788;2023-12-28T01:56:47;10.13;;;3.42;;
47219;SDS011;32961;51.936;4.788;2023-12-28T01:59:16;8.23;;;2.88;;
47219;SDS011;32961;51.936;4.788;2023-12-28T02:01:46;4.75;;;2.30;;
47219;SDS011;32961;51.936;4.788;2023-12-28T02:04:15;13.07;;;2.67;;
47219;SDS011;32961;51.936;4.788;2023-12-28T02:06:43;7.25;;;2.50;;
47219;SDS011;32961;51.936;4.788;2023-12-28T02:09:11;6.35;;;2.25;;
47219;SDS011;32961;51.936;4.788;2023-12-28T02:11:42;6.43;;;2.38;;
47219;SDS011;32961;51.936;4.788;2023-12-28T02:14:09;6.30;;;3.08;;
47219;SDS011;32961;51.936;4.788;2023-12-28T02:16:39;5.00;;;2.20;;
47219;SDS011;32961;51.936;4.788;2023-12-28T02:19:16;7.13;;;1.95;;
47219;SDS011;32961;51.936;4.788;2023-12-28T02:21:52;7.75;;;2.45;;
47219;SDS011;32961;51.936;4.788;2023-12-28T02:24:21;6.72;;;2.22;;
47219;SDS011;32961;51.936;4.788;2023-12-28T02:26:50;6.32;;;2.20;;
47219;SDS011;32961;51.936;4.788;2023-12-28T02:29:18;9.02;;;2.33;;
47219;SDS011;32961;51.936;4.788;2023-12-28T02:31:46;7.03;;;2.08;;
47219;SDS011;32961;51.936;4.788;2023-12-28T02:34:22;4.30;;;2.22;;
47219;SDS011;32961;51.936;4.788;2023-12-28T02:36:57;7.25;;;2.10;;
47219;SDS011;32961;51.936;4.788;2023-12-28T02:39:26;4.47;;;2.20;;
47219;SDS011;32961;51.936;4.788;2023-12-28T02:41:57;4.45;;;2.55;;
47219;SDS011;32961;51.936;4.788;2023-12-28T02:44:25;7.95;;;2.00;;
47219;SDS011;32961;51.936;4.788;2023-12-28T02:46:53;5.07;;;2.15;;
47219;SDS011;32961;51.936;4.788;2023-12-28T02:49:21;5.57;;;1.90;;
47219;SDS011;32961;51.936;4.788;2023-12-28T02:51:50;8.85;;;2.20;;
47219;SDS011;32961;51.936;4.788;2023-12-28T02:54:18;8.30;;;2.10;;
47219;SDS011;32961;51.936;4.788;2023-12-28T02:56:46;8.60;;;2.38;;
47219;SDS011;32961;51.936;4.788;2023-12-28T02:59:15;7.00;;;2.17;;
47219;SDS011;32961;51.936;4.788;2023-12-28T03:01:43;9.40;;;2.58;;
47219;SDS011;32961;51.936;4.788;2023-12-28T03:04:11;7.20;;;2.10;;
47219;SDS011;32961;51.936;4.788;2023-12-28T03:06:39;6.70;;;2.28;;
47219;SDS011;32961;51.936;4.788;2023-12-28T03:09:07;10.32;;;2.60;;
47219;SDS011;32961;51.936;4.788;2023-12-28T03:11:35;7.35;;;1.90;;
47219;SDS011;32961;51.936;4.788;2023-12-28T03:14:03;6.10;;;2.75;;
47219;SDS011;32961;51.936;4.788;2023-12-28T03:16:32;6.95;;;2.10;;
47219;SDS011;32961;51.936;4.788;2023-12-28T03:19:00;6.78;;;2.08;;
47219;SDS011;32961;51.936;4.788;2023-12-28T03:21:28;7.32;;;2.00;;
47219;SDS011;32961;51.936;4.788;2023-12-28T03:23:56;9.70;;;2.95;;
47219;SDS011;32961;51.936;4.788;2023-12-28T03:26:24;6.50;;;2.40;;
47219;SDS011;32961;51.936;4.788;2023-12-28T03:28:52;5.97;;;2.13;;
47219;SDS011;32961;51.936;4.788;2023-12-28T03:31:20;7.70;;;2.40;;
47219;SDS011;32961;51.936;4.788;2023-12-28T03:33:49;6.78;;;1.90;;
47219;SDS011;32961;51.936;4.788;2023-12-28T03:36:17;10.30;;;2.60;;
47219;SDS011;32961;51.936;4.788;2023-12-28T03:38:46;7.28;;;2.08;;
47219;SDS011;32961;51.936;4.788;2023-12-28T03:41:17;9.32;;;4.32;;
47219;SDS011;32961;51.936;4.788;2023-12-28T03:43:45;9.23;;;2.25;;
47219;SDS011;32961;51.936;4.788;2023-12-28T03:46:13;6.60;;;2.90;;
47219;SDS011;32961;51.936;4.788;2023-12-28T03:48:41;8.65;;;2.15;;
47219;SDS011;32961;51.936;4.788;2023-12-28T03:51:14;11.10;;;2.65;;
47219;SDS011;32961;51.936;4.788;2023-12-28T03:53:42;11.68;;;2.42;;
47219;SDS011;32961;51.936;4.788;2023-12-28T03:56:17;13.98;;;3.60;;
47219;SDS011;32961;51.936;4.788;2023-12-28T03:58:48;8.57;;;2.40;;
47219;SDS011;32961;51.936;4.788;2023-12-28T04:01:16;14.50;;;2.35;;
47219;SDS011;32961;51.936;4.788;2023-12-28T04:03:45;11.15;;;2.47;;
47219;SDS011;32961;51.936;4.788;2023-12-28T04:06:15;12.10;;;2.30;;
47219;SDS011;32961;51.936;4.788;2023-12-28T04:08:43;11.18;;;2.30;;
47219;SDS011;32961;51.936;4.788;2023-12-28T04:11:11;12.05;;;4.03;;
47219;SDS011;32961;51.936;4.788;2023-12-28T04:13:39;10.25;;;2.28;;
47219;SDS011;32961;51.936;4.788;2023-12-28T04:16:06;13.93;;;3.58;;
47219;SDS011;32961;51.936;4.788;2023-12-28T04:18:35;11.23;;;2.75;;
47219;SDS011;32961;51.936;4.788;2023-12-28T04:21:04;8.20;;;2.20;;
47219;SDS011;32961;51.936;4.788;2023-12-28T04:23:37;11.77;;;2.22;;
47219;SDS011;32961;51.936;4.788;2023-12-28T04:26:05;16.52;;;4.05;;
47219;SDS011;32961;51.936;4.788;2023-12-28T04:28:34;12.68;;;2.50;;
47219;SDS011;32961;51.936;4.788;2023-12-28T04:31:02;11.23;;;3.65;;
47219;SDS011;32961;51.936;4.788;2023-12-28T04:33:31;11.27;;;2.53;;
47219;SDS011;32961;51.936;4.788;2023-12-28T04:36:00;13.43;;;2.67;;
47219;SDS011;32961;51.936;4.788;2023-12-28T04:38:30;12.95;;;2.30;;
47219;SDS011;32961;51.936;4.788;2023-12-28T04:40:59;10.45;;;2.17;;
47219;SDS011;32961;51.936;4.788;2023-12-28T04:43:27;12.48;;;2.38;;
47219;SDS011;32961;51.936;4.788;2023-12-28T04:45:55;11.55;;;2.38;;
47219;SDS011;32961;51.936;4.788;2023-12-28T04:48:23;13.95;;;3.03;;
47219;SDS011;32961;51.936;4.788;2023-12-28T04:50:52;12.50;;;2.10;;
47219;SDS011;32961;51.936;4.788;2023-12-28T04:53:20;7.60;;;2.38;;
47219;SDS011;32961;51.936;4.788;2023-12-28T04:55:48;11.80;;;2.92;;
47219;SDS011;32961;51.936;4.788;2023-12-28T04:58:17;15.00;;;4.25;;
47219;SDS011;32961;51.936;4.788;2023-12-28T05:00:45;16.75;;;3.22;;
47219;SDS011;32961;51.936;4.788;2023-12-28T05:03:13;11.60;;;2.58;;
47219;SDS011;32961;51.936;4.788;2023-12-28T05:05:41;11.18;;;2.55;;
47219;SDS011;32961;51.936;4.788;2023-12-28T05:08:09;13.23;;;2.63;;
47219;SDS011;32961;51.936;4.788;2023-12-28T05:10:37;14.25;;;2.38;;
47219;SDS011;32961;51.936;4.788;2023-12-28T05:13:05;14.10;;;2.45;;
47219;SDS011;32961;51.936;4.788;2023-12-28T05:15:34;14.32;;;3.63;;
47219;SDS011;32961;51.936;4.788;2023-12-28T05:18:02;14.90;;;2.90;;
47219;SDS011;32961;51.936;4.788;2023-12-28T05:20:31;17.75;;;3.05;;
47219;SDS011;32961;51.936;4.788;2023-12-28T05:22:59;15.68;;;2.83;;
47219;SDS011;32961;51.936;4.788;2023-12-28T05:25:26;14.25;;;2.75;;
47219;SDS011;32961;51.936;4.788;2023-12-28T05:27:54;18.33;;;3.03;;
47219;SDS011;32961;51.936;4.788;2023-12-28T05:30:23;14.55;;;2.45;;
47219;SDS011;32961;51.936;4.788;2023-12-28T05:32:52;11.48;;;2.60;;
47219;SDS011;32961;51.936;4.788;2023-12-28T05:35:20;17.92;;;2.75;;
47219;SDS011;32961;51.936;4.788;2023-12-28T05:37:48;14.27;;;3.78;;
47219;SDS011;32961;51.936;4.788;2023-12-28T05:40:16;14.50;;;2.97;;
47219;SDS011;32961;51.936;4.788;2023-12-28T05:42:43;21.52;;;3.92;;
47219;SDS011;32961;51.936;4.788;2023-12-28T05:45:11;17.90;;;2.55;;
47219;SDS011;32961;51.936;4.788;2023-12-28T05:47:39;13.43;;;2.72;;
47219;SDS011;32961;51.936;4.788;2023-12-28T05:50:08;16.77;;;2.95;;
47219;SDS011;32961;51.936;4.788;2023-12-28T05:52:37;9.20;;;2.08;;
47219;SDS011;32961;51.936;4.788;2023-12-28T05:55:06;16.73;;;3.45;;
47219;SDS011;32961;51.936;4.788;2023-12-28T05:57:34;14.13;;;2.47;;
47219;SDS011;32961;51.936;4.788;2023-12-28T06:00:03;20.25;;;3.25;;
47219;SDS011;32961;51.936;4.788;2023-12-28T06:02:32;17.80;;;3.25;;
47219;SDS011;32961;51.936;4.788;2023-12-28T06:05:00;19.58;;;2.90;;
47219;SDS011;32961;51.936;4.788;2023-12-28T06:07:31;18.55;;;2.90;;
47219;SDS011;32961;51.936;4.788;2023-12-28T06:09:59;19.65;;;4.47;;
47219;SDS011;32961;51.936;4.788;2023-12-28T06:12:31;15.05;;;3.55;;
47219;SDS011;32961;51.936;4.788;2023-12-28T06:14:58;13.63;;;2.78;;
47219;SDS011;32961;51.936;4.788;2023-12-28T06:17:27;15.05;;;2.80;;
47219;SDS011;32961;51.936;4.788;2023-12-28T06:19:58;18.80;;;2.92;;
47219;SDS011;32961;51.936;4.788;2023-12-28T06:22:26;20.25;;;3.83;;
47219;SDS011;32961;51.936;4.788;2023-12-28T06:24:55;18.67;;;3.17;;
47219;SDS011;32961;51.936;4.788;2023-12-28T06:27:24;18.08;;;2.90;;
47219;SDS011;32961;51.936;4.788;2023-12-28T06:29:52;17.35;;;3.47;;
47219;SDS011;32961;51.936;4.788;2023-12-28T06:32:20;24.77;;;5.50;;
47219;SDS011;32961;51.936;4.788;2023-12-28T06:34:50;16.25;;;3.38;;
47219;SDS011;32961;51.936;4.788;2023-12-28T06:37:18;15.52;;;2.80;;
47219;SDS011;32961;51.936;4.788;2023-12-28T06:39:47;18.08;;;3.53;;
47219;SDS011;32961;51.936;4.788;2023-12-28T06:42:16;21.98;;;3.35;;
47219;SDS011;32961;51.936;4.788;2023-12-28T06:44:44;23.38;;;5.38;;
47219;SDS011;32961;51.936;4.788;2023-12-28T06:47:12;16.77;;;3.53;;
47219;SDS011;32961;51.936;4.788;2023-12-28T06:49:39;25.27;;;6.15;;
47219;SDS011;32961;51.936;4.788;2023-12-28T06:52:07;15.40;;;2.75;;
47219;SDS011;32961;51.936;4.788;2023-12-28T06:54:35;22.58;;;3.13;;
47219;SDS011;32961;51.936;4.788;2023-12-28T06:57:03;15.60;;;3.25;;
47219;SDS011;32961;51.936;4.788;2023-12-28T06:59:33;17.45;;;4.88;;
47219;SDS011;32961;51.936;4.788;2023-12-28T07:02:01;17.50;;;3.70;;
47219;SDS011;32961;51.936;4.788;2023-12-28T07:04:31;24.00;;;3.88;;
47219;SDS011;32961;51.936;4.788;2023-12-28T07:06:59;18.60;;;2.88;;
47219;SDS011;32961;51.936;4.788;2023-12-28T07:09:27;21.58;;;2.88;;
47219;SDS011;32961;51.936;4.788;2023-12-28T07:11:55;17.40;;;3.17;;
47219;SDS011;32961;51.936;4.788;2023-12-28T07:14:23;14.55;;;2.42;;
47219;SDS011;32961;51.936;4.788;2023-12-28T07:16:52;18.50;;;3.00;;
47219;SDS011;32961;51.936;4.788;2023-12-28T07:19:20;28.08;;;4.00;;
47219;SDS011;32961;51.936;4.788;2023-12-28T07:21:48;13.98;;;3.45;;
47219;SDS011;32961;51.936;4.788;2023-12-28T07:24:15;19.58;;;4.50;;
47219;SDS011;32961;51.936;4.788;2023-12-28T07:26:43;17.65;;;2.90;;
47219;SDS011;32961;51.936;4.788;2023-12-28T07:29:11;21.60;;;3.13;;
47219;SDS011;32961;51.936;4.788;2023-12-28T07:31:39;14.13;;;3.47;;
47219;SDS011;32961;51.936;4.788;2023-12-28T07:34:08;22.77;;;4.13;;
47219;SDS011;32961;51.936;4.788;2023-12-28T07:36:36;13.35;;;3.42;;
47219;SDS011;32961;51.936;4.788;2023-12-28T07:39:07;16.65;;;3.40;;
47219;SDS011;32961;51.936;4.788;2023-12-28T07:41:35;12.32;;;2.47;;
47219;SDS011;32961;51.936;4.788;2023-12-28T07:44:03;19.75;;;5.55;;
47219;SDS011;32961;51.936;4.788;2023-12-28T07:46:31;21.13;;;3.58;;
47219;SDS011;32961;51.936;4.788;2023-12-28T07:48:58;19.20;;;4.57;;
47219;SDS011;32961;51.936;4.788;2023-12-28T07:51:28;23.25;;;3.53;;
47219;SDS011;32961;51.936;4.788;2023-12-28T07:53:56;19.83;;;3.25;;
47219;SDS011;32961;51.936;4.788;2023-12-28T07:56:24;17.23;;;3.72;;
47219;SDS011;32961;51.936;4.788;2023-12-28T07:58:51;14.82;;;3.88;;
47219;SDS011;32961;51.936;4.788;2023-12-28T08:01:19;23.70;;;4.00;;
47219;SDS011;32961;51.936;4.788;2023-12-28T08:03:48;23.75;;;4.43;;
47219;SDS011;32961;51.936;4.788;2023-12-28T08:06:16;20.48;;;4.88;;
47219;SDS011;32961;51.936;4.788;2023-12-28T08:08:45;28.02;;;4.75;;
47219;SDS011;32961;51.936;4.788;2023-12-28T08:11:14;21.23;;;3.08;;
47219;SDS011;32961;51.936;4.788;2023-12-28T08:13:42;23.60;;;4.93;;
47219;SDS011;32961;51.936;4.788;2023-12-28T08:16:10;21.83;;;3.28;;
47219;SDS011;32961;51.936;4.788;2023-12-28T08:18:37;22.83;;;3.05;;
47219;SDS011;32961;51.936;4.788;2023-12-28T08:21:05;21.63;;;3.85;;
47219;SDS011;32961;51.936;4.788;2023-12-28T08:23:33;23.95;;;3.65;;
47219;SDS011;32961;51.936;4.788;2023-12-28T08:26:03;14.23;;;3.22;;
47219;SDS011;32961;51.936;4.788;2023-12-28T08:28:31;22.13;;;4.32;;
47219;SDS011;32961;51.936;4.788;2023-12-28T08:30:59;16.58;;;2.90;;
47219;SDS011;32961;51.936;4.788;2023-12-28T08:33:27;21.60;;;3.40;;
47219;SDS011;32961;51.936;4.788;2023-12-28T08:35:55;19.27;;;3.88;;
47219;SDS011;32961;51.936;4.788;2023-12-28T08:38:23;22.30;;;5.75;;
47219;SDS011;32961;51.936;4.788;2023-12-28T08:40:50;23.67;;;3.92;;
47219;SDS011;32961;51.936;4.788;2023-12-28T08:43:20;16.65;;;2.92;;
47219;SDS011;32961;51.936;4.788;2023-12-28T08:45:47;20.58;;;3.90;;
47219;SDS011;32961;51.936;4.788;2023-12-28T08:48:15;24.98;;;4.20;;
47219;SDS011;32961;51.936;4.788;2023-12-28T08:50:43;20.92;;;4.72;;
47219;SDS011;32961;51.936;4.788;2023-12-28T08:53:11;21.05;;;2.72;;
47219;SDS011;32961;51.936;4.788;2023-12-28T08:55:39;31.67;;;3.90;;
47219;SDS011;32961;51.936;4.788;2023-12-28T08:58:07;19.73;;;5.38;;
47219;SDS011;32961;51.936;4.788;2023-12-28T09:00:36;16.77;;;2.75;;
47219;SDS011;32961;51.936;4.788;2023-12-28T09:03:04;18.10;;;3.50;;
47219;SDS011;32961;51.936;4.788;2023-12-28T09:05:34;20.40;;;3.80;;
47219;SDS011;32961;51.936;4.788;2023-12-28T09:08:02;27.25;;;6.20;;
47219;SDS011;32961;51.936;4.788;2023-12-28T09:10:30;21.45;;;3.60;;
47219;SDS011;32961;51.936;4.788;2023-12-28T09:12:57;22.77;;;4.03;;
47219;SDS011;32961;51.936;4.788;2023-12-28T09:15:25;22.55;;;3.38;;
47219;SDS011;32961;51.936;4.788;2023-12-28T09:17:55;28.02;;;5.15;;
47219;SDS011;32961;51.936;4.788;2023-12-28T09:20:24;20.00;;;3.53;;
47219;SDS011;32961;51.936;4.788;2023-12-28T09:22:52;18.02;;;3.20;;
47219;SDS011;32961;51.936;4.788;2023-12-28T09:25:22;26.85;;;4.95;;
47219;SDS011;32961;51.936;4.788;2023-12-28T09:27:50;26.40;;;4.60;;
47219;SDS011;32961;51.936;4.788;2023-12-28T09:30:18;22.25;;;3.35;;
47219;SDS011;32961;51.936;4.788;2023-12-28T09:32:46;21.80;;;3.00;;
47219;SDS011;32961;51.936;4.788;2023-12-28T09:35:15;17.05;;;3.28;;
47219;SDS011;32961;51.936;4.788;2023-12-28T09:37:43;19.40;;;3.60;;
47219;SDS011;32961;51.936;4.788;2023-12-28T09:40:11;28.17;;;4.20;;
47219;SDS011;32961;51.936;4.788;2023-12-28T09:42:40;25.98;;;3.92;;
47219;SDS011;32961;51.936;4.788;2023-12-28T09:45:16;21.73;;;3.08;;
47219;SDS011;32961;51.936;4.788;2023-12-28T09:47:45;21.85;;;4.13;;
47219;SDS011;32961;51.936;4.788;2023-12-28T09:50:16;22.52;;;4.43;;
47219;SDS011;32961;51.936;4.788;2023-12-28T09:52:45;22.40;;;3.75;;
47219;SDS011;32961;51.936;4.788;2023-12-28T09:55:13;25.20;;;4.00;;
47219;SDS011;32961;51.936;4.788;2023-12-28T09:57:41;32.00;;;4.15;;
47219;SDS011;32961;51.936;4.788;2023-12-28T10:00:10;19.35;;;3.22;;
47219;SDS011;32961;51.936;4.788;2023-12-28T10:02:39;22.45;;;3.90;;
47219;SDS011;32961;51.936;4.788;2023-12-28T10:05:12;20.48;;;3.55;;
47219;SDS011;32961;51.936;4.788;2023-12-28T10:07:45;25.15;;;3.67;;
47219;SDS011;32961;51.936;4.788;2023-12-28T10:10:17;40.17;;;7.28;;
47219;SDS011;32961;51.936;4.788;2023-12-28T10:12:46;19.58;;;3.25;;
47219;SDS011;32961;51.936;4.788;2023-12-28T10:15:14;22.45;;;3.45;;
47219;SDS011;32961;51.936;4.788;2023-12-28T10:17:42;17.90;;;3.08;;
47219;SDS011;32961;51.936;4.788;2023-12-28T10:20:10;15.93;;;3.22;;
47219;SDS011;32961;51.936;4.788;2023-12-28T10:22:38;19.05;;;3.47;;
47219;SDS011;32961;51.936;4.788;2023-12-28T10:25:08;24.58;;;4.95;;
47219;SDS011;32961;51.936;4.788;2023-12-28T10:27:37;18.70;;;3.88;;
47219;SDS011;32961;51.936;4.788;2023-12-28T10:30:07;24.75;;;4.28;;
47219;SDS011;32961;51.936;4.788;2023-12-28T10:32:39;21.63;;;3.53;;
47219;SDS011;32961;51.936;4.788;2023-12-28T10:35:08;22.35;;;4.55;;
47219;SDS011;32961;51.936;4.788;2023-12-28T10:37:37;21.63;;;5.07;;
47219;SDS011;32961;51.936;4.788;2023-12-28T10:40:13;22.63;;;3.70;;
47219;SDS011;32961;51.936;4.788;2023-12-28T10:42:46;20.65;;;4.50;;
47219;SDS011;32961;51.936;4.788;2023-12-28T10:45:19;26.30;;;4.47;;
47219;SDS011;32961;51.936;4.788;2023-12-28T10:47:54;24.13;;;4.77;;
47219;SDS011;32961;51.936;4.788;2023-12-28T10:50:28;22.60;;;4.13;;
47219;SDS011;32961;51.936;4.788;2023-12-28T10:53:00;26.17;;;3.53;;
47219;SDS011;32961;51.936;4.788;2023-12-28T10:55:38;20.15;;;4.32;;
47219;SDS011;32961;51.936;4.788;2023-12-28T10:58:10;26.05;;;5.25;;
47219;SDS011;32961;51.936;4.788;2023-12-28T11:00:47;21.75;;;4.70;;
47219;SDS011;32961;51.936;4.788;2023-12-28T11:03:22;30.05;;;4.20;;
47219;SDS011;32961;51.936;4.788;2023-12-28T11:05:55;19.48;;;4.07;;
47219;SDS011;32961;51.936;4.788;2023-12-28T11:08:26;15.63;;;2.90;;
47219;SDS011;32961;51.936;4.788;2023-12-28T11:10:57;17.77;;;3.72;;
47219;SDS011;32961;51.936;4.788;2023-12-28T11:13:28;18.67;;;3.70;;
47219;SDS011;32961;51.936;4.788;2023-12-28T11:15:57;20.63;;;3.60;;
47219;SDS011;32961;51.936;4.788;2023-12-28T11:18:27;25.95;;;4.18;;
47219;SDS011;32961;51.936;4.788;2023-12-28T11:20:55;20.13;;;3.78;;
47219;SDS011;32961;51.936;4.788;2023-12-28T11:23:24;25.67;;;4.03;;
47219;SDS011;32961;51.936;4.788;2023-12-28T11:25:52;25.63;;;3.70;;
47219;SDS011;32961;51.936;4.788;2023-12-28T11:28:22;23.67;;;3.95;;
47219;SDS011;32961;51.936;4.788;2023-12-28T11:30:51;22.77;;;4.20;;
47219;SDS011;32961;51.936;4.788;2023-12-28T11:33:19;23.58;;;4.35;;
47219;SDS011;32961;51.936;4.788;2023-12-28T11:35:47;25.45;;;5.15;;
47219;SDS011;32961;51.936;4.788;2023-12-28T11:38:15;23.65;;;3.80;;
47219;SDS011;32961;51.936;4.788;2023-12-28T11:40:45;22.60;;;3.65;;
47219;SDS011;32961;51.936;4.788;2023-12-28T11:43:14;22.77;;;4.18;;
47219;SDS011;32961;51.936;4.788;2023-12-28T11:45:50;22.40;;;3.90;;
47219;SDS011;32961;51.936;4.788;2023-12-28T11:50:50;20.15;;;4.35;;
47219;SDS011;32961;51.936;4.788;2023-12-28T11:53:21;25.08;;;3.67;;
47219;SDS011;32961;51.936;4.788;2023-12-28T11:55:49;23.00;;;4.28;;
47219;SDS011;32961;51.936;4.788;2023-12-28T11:58:17;19.95;;;3.70;;
47219;SDS011;32961;51.936;4.788;2023-12-28T12:00:45;27.30;;;5.15;;
47219;SDS011;32961;51.936;4.788;2023-12-28T12:03:17;21.63;;;4.65;;
47219;SDS011;32961;51.936;4.788;2023-12-28T12:05:46;24.73;;;3.80;;
47219;SDS011;32961;51.936;4.788;2023-12-28T12:08:14;31.33;;;4.22;;
47219;SDS011;32961;51.936;4.788;2023-12-28T12:10:42;27.63;;;4.35;;
47219;SDS011;32961;51.936;4.788;2023-12-28T12:13:10;19.20;;;3.97;;
47219;SDS011;32961;51.936;4.788;2023-12-28T12:15:38;24.90;;;3.67;;
47219;SDS011;32961;51.936;4.788;2023-12-28T12:18:06;22.35;;;4.18;;
47219;SDS011;32961;51.936;4.788;2023-12-28T12:20:35;24.27;;;3.67;;
47219;SDS011;32961;51.936;4.788;2023-12-28T12:23:06;19.77;;;3.78;;
47219;SDS011;32961;51.936;4.788;2023-12-28T12:25:33;21.50;;;3.88;;
47219;SDS011;32961;51.936;4.788;2023-12-28T12:28:01;20.20;;;3.85;;
47219;SDS011;32961;51.936;4.788;2023-12-28T12:30:30;19.50;;;3.67;;
47219;SDS011;32961;51.936;4.788;2023-12-28T12:32:58;32.92;;;7.45;;
47219;SDS011;32961;51.936;4.788;2023-12-28T12:35:27;26.40;;;4.45;;
47219;SDS011;32961;51.936;4.788;2023-12-28T12:37:57;20.33;;;4.22;;
47219;SDS011;32961;51.936;4.788;2023-12-28T12:40:25;21.73;;;3.75;;
47219;SDS011;32961;51.936;4.788;2023-12-28T12:42:53;19.65;;;3.38;;
47219;SDS011;32961;51.936;4.788;2023-12-28T12:45:21;19.80;;;3.60;;
47219;SDS011;32961;51.936;4.788;2023-12-28T12:47:50;24.80;;;4.97;;
47219;SDS011;32961;51.936;4.788;2023-12-28T12:50:19;22.33;;;4.15;;
47219;SDS011;32961;51.936;4.788;2023-12-28T12:52:48;20.83;;;4.82;;
47219;SDS011;32961;51.936;4.788;2023-12-28T12:55:20;21.40;;;3.78;;
47219;SDS011;32961;51.936;4.788;2023-12-28T12:57:48;19.50;;;3.60;;
47219;SDS011;32961;51.936;4.788;2023-12-28T13:00:18;29.67;;;5.00;;
47219;SDS011;32961;51.936;4.788;2023-12-28T13:02:48;22.95;;;3.33;;
47219;SDS011;32961;51.936;4.788;2023-12-28T13:05:17;32.22;;;5.13;;
47219;SDS011;32961;51.936;4.788;2023-12-28T13:07:45;20.98;;;4.40;;
47219;SDS011;32961;51.936;4.788;2023-12-28T13:10:13;23.55;;;3.63;;
47219;SDS011;32961;51.936;4.788;2023-12-28T13:12:44;27.27;;;5.00;;
47219;SDS011;32961;51.936;4.788;2023-12-28T13:15:12;22.27;;;5.45;;
47219;SDS011;32961;51.936;4.788;2023-12-28T13:17:40;21.10;;;4.25;;
47219;SDS011;32961;51.936;4.788;2023-12-28T13:20:10;26.40;;;3.95;;
47219;SDS011;32961;51.936;4.788;2023-12-28T13:22:38;30.65;;;4.50;;
47219;SDS011;32961;51.936;4.788;2023-12-28T13:25:06;22.23;;;3.60;;
47219;SDS011;32961;51.936;4.788;2023-12-28T13:27:34;20.80;;;3.95;;
47219;SDS011;32961;51.936;4.788;2023-12-28T13:30:04;23.48;;;3.95;;
47219;SDS011;32961;51.936;4.788;2023-12-28T13:32:33;28.60;;;5.43;;
47219;SDS011;32961;51.936;4.788;2023-12-28T13:35:02;31.33;;;5.00;;
47219;SDS011;32961;51.936;4.788;2023-12-28T13:37:31;25.33;;;4.97;;
47219;SDS011;32961;51.936;4.788;2023-12-28T13:39:59;23.58;;;4.82;;
47219;SDS011;32961;51.936;4.788;2023-12-28T13:42:27;39.72;;;4.55;;
47219;SDS011;32961;51.936;4.788;2023-12-28T13:44:55;20.30;;;4.10;;
47219;SDS011;32961;51.936;4.788;2023-12-28T13:47:24;26.98;;;4.85;;
47219;SDS011;32961;51.936;4.788;2023-12-28T13:49:52;24.40;;;4.75;;
47219;SDS011;32961;51.936;4.788;2023-12-28T13:52:21;25.48;;;5.50;;
47219;SDS011;32961;51.936;4.788;2023-12-28T13:54:48;32.42;;;4.05;;
47219;SDS011;32961;51.936;4.788;2023-12-28T13:57:16;32.47;;;7.22;;
47219;SDS011;32961;51.936;4.788;2023-12-28T13:59:44;29.70;;;6.25;;
47219;SDS011;32961;51.936;4.788;2023-12-28T14:02:12;25.63;;;4.47;;
47219;SDS011;32961;51.936;4.788;2023-12-28T14:04:41;29.27;;;5.40;;
47219;SDS011;32961;51.936;4.788;2023-12-28T14:07:09;22.98;;;3.65;;
47219;SDS011;32961;51.936;4.788;2023-12-28T14:09:37;25.27;;;4.50;;
47219;SDS011;32961;51.936;4.788;2023-12-28T14:12:06;24.52;;;3.40;;
47219;SDS011;32961;51.936;4.788;2023-12-28T14:14:34;23.95;;;3.35;;
47219;SDS011;32961;51.936;4.788;2023-12-28T14:17:02;21.73;;;3.70;;
47219;SDS011;32961;51.936;4.788;2023-12-28T14:19:31;27.85;;;7.40;;
47219;SDS011;32961;51.936;4.788;2023-12-28T14:22:00;18.70;;;3.38;;
47219;SDS011;32961;51.936;4.788;2023-12-28T14:24:29;22.02;;;3.83;;
47219;SDS011;32961;51.936;4.788;2023-12-28T14:26:57;29.60;;;5.03;;
47219;SDS011;32961;51.936;4.788;2023-12-28T14:29:26;21.25;;;4.05;;
47219;SDS011;32961;51.936;4.788;2023-12-28T14:31:54;18.10;;;3.03;;
47219;SDS011;32961;51.936;4.788;2023-12-28T14:34:23;17.23;;;3.60;;
47219;SDS011;32961;51.936;4.788;2023-12-28T14:36:52;25.67;;;4.60;;
47219;SDS011;32961;51.936;4.788;2023-12-28T14:39:22;30.85;;;5.85;;
47219;SDS011;32961;51.936;4.788;2023-12-28T14:41:50;28.08;;;4.55;;
47219;SDS011;32961;51.936;4.788;2023-12-28T14:44:18;21.95;;;4.30;;
47219;SDS011;32961;51.936;4.788;2023-12-28T14:46:46;21.63;;;3.33;;
47219;SDS011;32961;51.936;4.788;2023-12-28T14:49:14;23.13;;;3.80;;